createdAt,value
2023-08-18T00:00:08.997Z,48.29
2023-08-18T00:02:42.109Z,47.90
2023-08-18T00:05:09.379Z,48.51
2023-08-18T00:07:36.521Z,47.27
2023-08-18T00:10:05.289Z,48.42
2023-08-18T00:12:33.814Z,49.48
2023-08-18T00:15:01.294Z,49.28
2023-08-18T00:17:28.740Z,49.35
2023-08-18T00:19:55.957Z,49.34
2023-08-18T00:22:23.124Z,49.81
2023-08-18T00:24:49.988Z,49.56
2023-08-18T00:27:16.894Z,49.14
2023-08-18T00:29:43.758Z,48.70
2023-08-18T00:32:10.702Z,48.45
2023-08-18T00:34:38.837Z,47.99
2023-08-18T00:37:05.861Z,48.51
2023-08-18T00:39:32.815Z,49.18
2023-08-18T00:41:59.723Z,48.73
2023-08-18T00:44:27.168Z,48.64
2023-08-18T00:46:55.033Z,48.63
2023-08-18T00:49:22.781Z,48.78
2023-08-18T00:51:50.136Z,49.15
2023-08-18T00:54:17.731Z,48.93
2023-08-18T00:56:46.888Z,49.07
2023-08-18T00:59:14.687Z,49.38
2023-08-18T01:01:43.876Z,49.32
2023-08-18T01:04:13.590Z,49.69
2023-08-18T01:06:41.161Z,49.79
2023-08-18T01:09:08.486Z,50.38
2023-08-18T01:11:50.080Z,50.21
2023-08-18T01:14:46.052Z,50.16
2023-08-18T01:17:21.455Z,50.36
2023-08-18T01:19:49.462Z,50.24
2023-08-18T01:22:19.186Z,50.52
2023-08-18T01:24:46.147Z,51.87
2023-08-18T01:27:13.004Z,50.65
2023-08-18T01:29:40.153Z,50.63
2023-08-18T01:32:09.108Z,50.70
2023-08-18T01:34:41.907Z,50.58
2023-08-18T01:37:10.248Z,51.24
2023-08-18T01:39:38.567Z,51.11
2023-08-18T01:42:05.838Z,51.02
2023-08-18T01:44:32.734Z,50.76
2023-08-18T01:47:00.527Z,51.19
2023-08-18T01:49:27.456Z,51.40
2023-08-18T01:51:54.316Z,50.86
2023-08-18T01:54:21.468Z,51.33
2023-08-18T01:56:48.415Z,51.08
2023-08-18T01:59:16.463Z,50.91
2023-08-18T02:01:43.443Z,50.81
2023-08-18T02:04:10.326Z,50.73
2023-08-18T02:06:37.294Z,50.32
2023-08-18T02:09:04.960Z,50.63
2023-08-18T02:11:33.172Z,51.29
2023-08-18T02:14:00.193Z,51.78
2023-08-18T02:16:27.164Z,51.48
2023-08-18T02:18:54.107Z,51.38
2023-08-18T02:21:21.025Z,51.50
2023-08-18T02:23:47.974Z,51.88
2023-08-18T02:26:15.645Z,52.08
2023-08-18T02:28:42.520Z,52.68
2023-08-18T02:31:10.904Z,52.67
2023-08-18T02:33:38.167Z,53.19
2023-08-18T02:36:06.192Z,53.23
2023-08-18T02:38:36.505Z,53.28
2023-08-18T02:41:03.378Z,53.20
2023-08-18T02:43:30.201Z,52.91
2023-08-18T02:46:03.998Z,52.02
2023-08-18T02:48:31.406Z,51.79
2023-08-18T02:51:08.840Z,51.93
2023-08-18T02:53:38.445Z,52.52
2023-08-18T02:56:05.577Z,52.11
2023-08-18T02:58:34.729Z,52.15
2023-08-18T03:01:04.485Z,51.72
2023-08-18T03:03:32.934Z,52.07
2023-08-18T03:06:01.680Z,52.76
2023-08-18T03:08:28.792Z,53.58
2023-08-18T03:11:00.686Z,54.05
2023-08-18T03:13:28.054Z,54.24
2023-08-18T03:15:55.672Z,54.45
2023-08-18T03:18:23.091Z,54.78
2023-08-18T03:20:51.015Z,54.16
2023-08-18T03:23:19.419Z,54.08
2023-08-18T03:25:46.508Z,54.17
2023-08-18T03:28:13.670Z,54.26
2023-08-18T03:30:41.449Z,53.63
2023-08-18T03:33:09.516Z,54.05
2023-08-18T03:35:37.121Z,54.11
2023-08-18T03:38:05.045Z,54.28
2023-08-18T03:40:33.286Z,54.48
2023-08-18T03:43:00.470Z,53.74
2023-08-18T03:45:29.244Z,53.18
2023-08-18T03:47:56.505Z,53.25
2023-08-18T03:50:23.890Z,53.43
2023-08-18T03:52:50.801Z,54.27
2023-08-18T03:55:19.447Z,53.29
2023-08-18T03:57:46.440Z,54.48
2023-08-18T04:00:14.039Z,54.60
2023-08-18T04:02:41.074Z,55.01
2023-08-18T04:05:12.172Z,55.43
2023-08-18T04:07:39.126Z,54.23
2023-08-18T04:10:07.115Z,54.24
2023-08-18T04:12:34.248Z,53.38
2023-08-18T04:15:01.164Z,52.93
2023-08-18T04:17:28.052Z,53.43
2023-08-18T04:19:55.439Z,52.42
2023-08-18T04:22:23.129Z,52.73
2023-08-18T04:24:51.938Z,53.45
2023-08-18T04:27:18.838Z,52.20
2023-08-18T04:29:45.808Z,52.30
2023-08-18T04:32:12.923Z,52.96
2023-08-18T04:34:41.068Z,52.73
2023-08-18T04:37:08.078Z,52.53
2023-08-18T04:39:35.062Z,53.04
2023-08-18T04:42:01.970Z,53.36
2023-08-18T04:44:32.320Z,52.54
2023-08-18T04:47:03.031Z,52.80
2023-08-18T04:49:30.138Z,51.33
2023-08-18T04:51:56.965Z,51.14
2023-08-18T04:54:23.856Z,50.13
2023-08-18T04:56:59.264Z,50.13
2023-08-18T04:59:27.362Z,49.65
2023-08-18T05:01:55.107Z,49.30
2023-08-18T05:04:23.073Z,50.26
2023-08-18T05:06:50.028Z,49.44
2023-08-18T05:09:16.952Z,49.13
2023-08-18T05:11:43.847Z,48.25
2023-08-18T05:14:10.910Z,49.01
2023-08-18T05:16:38.027Z,48.94
2023-08-18T05:19:05.441Z,48.90
2023-08-18T05:21:32.279Z,49.03
2023-08-18T05:23:59.240Z,48.95
2023-08-18T05:26:26.104Z,48.74
2023-08-18T05:28:53.030Z,49.01
2023-08-18T05:31:19.968Z,48.86
2023-08-18T05:33:46.796Z,48.36
2023-08-18T05:36:13.825Z,48.39
2023-08-18T05:38:40.738Z,48.58
2023-08-18T05:41:14.447Z,48.19
2023-08-18T05:43:42.368Z,47.74
2023-08-18T05:46:11.017Z,47.66
2023-08-18T05:48:37.944Z,46.93
2023-08-18T05:51:05.398Z,46.40
2023-08-18T05:53:32.756Z,47.12
2023-08-18T05:55:59.927Z,46.06
2023-08-18T05:58:28.096Z,45.79
2023-08-18T06:00:55.041Z,45.53
2023-08-18T06:03:22.054Z,46.19
2023-08-18T06:05:49.841Z,46.14
2023-08-18T06:08:17.414Z,46.23
2023-08-18T06:10:44.520Z,45.03
2023-08-18T06:13:11.488Z,45.51
2023-08-18T06:15:38.631Z,45.50
2023-08-18T06:18:05.680Z,45.08
2023-08-18T06:20:35.133Z,44.40
2023-08-18T06:23:01.997Z,44.04
2023-08-18T06:25:28.976Z,43.67
2023-08-18T06:27:56.069Z,44.43
2023-08-18T06:30:23.095Z,43.76
2023-08-18T06:32:49.995Z,44.08
2023-08-18T06:35:17.010Z,43.36
2023-08-18T06:37:43.899Z,43.64
2023-08-18T06:40:11.210Z,42.20
2023-08-18T06:42:38.266Z,42.48
2023-08-18T06:45:06.378Z,42.45
2023-08-18T06:47:34.800Z,43.56
2023-08-18T06:50:06.849Z,43.94
2023-08-18T06:52:35.158Z,45.98
2023-08-18T06:55:04.967Z,44.38
2023-08-18T06:57:33.210Z,43.64
2023-08-18T07:00:01.376Z,43.80
2023-08-18T07:02:30.016Z,44.66
2023-08-18T07:04:57.150Z,44.98
2023-08-18T07:07:24.006Z,43.88
2023-08-18T07:09:51.257Z,43.55
2023-08-18T07:12:19.720Z,42.04
2023-08-18T07:14:46.595Z,42.28
2023-08-18T07:17:13.441Z,42.21
2023-08-18T07:19:40.323Z,41.07
2023-08-18T07:22:07.198Z,41.06
2023-08-18T07:24:34.062Z,40.32
2023-08-18T07:27:01.059Z,37.70
2023-08-18T07:29:28.037Z,35.43
2023-08-18T07:31:54.986Z,35.06
2023-08-18T07:34:21.817Z,34.94
2023-08-18T07:36:48.751Z,33.98
2023-08-18T07:39:15.635Z,34.95
2023-08-18T07:41:42.579Z,35.54
2023-08-18T07:44:09.666Z,36.02
2023-08-18T07:46:37.028Z,35.50
2023-08-18T07:49:05.281Z,35.19
2023-08-18T07:51:32.468Z,36.07
2023-08-18T07:53:59.423Z,35.94
2023-08-18T07:56:26.490Z,34.56
2023-08-18T07:58:55.858Z,33.89
2023-08-18T08:01:24.289Z,34.28
2023-08-18T08:03:51.188Z,33.52
2023-08-18T08:06:18.146Z,34.82
2023-08-18T08:08:45.038Z,35.67
2023-08-18T08:11:13.682Z,35.41
2023-08-18T08:13:40.843Z,35.17
2023-08-18T08:16:08.134Z,34.74
2023-08-18T08:18:35.096Z,35.31
2023-08-18T08:21:01.957Z,35.79
2023-08-18T08:23:28.804Z,35.29
2023-08-18T08:25:56.738Z,35.14
2023-08-18T08:28:23.933Z,33.98
2023-08-18T08:30:53.706Z,34.04
2023-08-18T08:33:20.685Z,32.99
2023-08-18T08:35:47.614Z,32.87
2023-08-18T08:38:14.644Z,33.07
2023-08-18T08:40:42.652Z,33.49
2023-08-18T08:43:09.581Z,32.90
2023-08-18T08:45:36.517Z,34.05
2023-08-18T08:48:07.767Z,32.78
2023-08-18T08:50:38.539Z,33.00
2023-08-18T08:53:07.890Z,31.60
2023-08-18T08:55:37.769Z,31.97
2023-08-18T08:58:06.282Z,31.35
2023-08-18T09:00:33.281Z,31.96
2023-08-18T09:03:04.116Z,30.81
2023-08-18T09:05:32.542Z,31.09
2023-08-18T09:08:00.250Z,30.42
2023-08-18T09:10:30.603Z,29.79
2023-08-18T09:12:57.446Z,30.12
2023-08-18T09:15:25.111Z,30.31
2023-08-18T09:17:52.809Z,31.31
2023-08-18T09:20:20.548Z,31.44
2023-08-18T09:22:47.853Z,31.49
2023-08-18T09:25:15.067Z,31.20
2023-08-18T09:27:43.666Z,30.86
2023-08-18T09:30:10.880Z,30.74
2023-08-18T09:32:38.342Z,30.44
2023-08-18T09:35:12.087Z,30.47
2023-08-18T09:37:39.752Z,30.44
2023-08-18T09:40:07.366Z,29.95
2023-08-18T09:42:34.306Z,30.44
2023-08-18T09:45:01.346Z,30.62
2023-08-18T09:47:31.668Z,30.16
2023-08-18T09:50:01.375Z,29.24
2023-08-18T09:52:31.323Z,29.05
2023-08-18T09:55:12.420Z,28.75
2023-08-18T09:57:54.534Z,30.01
2023-08-18T10:00:22.453Z,30.42
2023-08-18T10:02:53.830Z,30.14
2023-08-18T10:05:23.046Z,29.61
2023-08-18T10:07:51.704Z,29.80
2023-08-18T10:10:19.639Z,29.95
2023-08-18T10:12:47.157Z,29.90
2023-08-18T10:15:15.456Z,29.60
2023-08-18T10:17:43.249Z,29.57
2023-08-18T10:20:13.519Z,29.49
2023-08-18T10:22:43.245Z,30.88
2023-08-18T10:25:10.827Z,30.56
2023-08-18T10:27:42.028Z,30.69
2023-08-18T10:30:08.983Z,29.89
2023-08-18T10:32:37.404Z,29.70
2023-08-18T10:35:23.951Z,30.00
2023-08-18T10:38:00.028Z,30.12
2023-08-18T10:40:30.121Z,30.39
2023-08-18T10:43:07.624Z,30.62
2023-08-18T10:45:35.036Z,30.49
2023-08-18T10:48:07.374Z,31.55
2023-08-18T10:50:40.191Z,31.10
2023-08-18T10:53:09.304Z,31.60
2023-08-18T10:55:36.309Z,28.60
2023-08-18T10:58:03.891Z,27.14
2023-08-18T11:00:35.420Z,29.42
2023-08-18T11:03:04.698Z,30.63
2023-08-18T11:05:35.202Z,29.99
2023-08-18T11:08:14.032Z,28.58
2023-08-18T11:10:44.058Z,27.94
2023-08-18T11:13:26.034Z,26.51
2023-08-18T11:15:57.336Z,26.40
2023-08-18T11:18:29.964Z,26.05
2023-08-18T11:20:57.665Z,26.54
2023-08-18T11:23:24.671Z,25.48
2023-08-18T11:25:51.767Z,25.89
2023-08-18T11:28:18.771Z,25.59
2023-08-18T11:30:45.724Z,27.84
2023-08-18T11:33:12.765Z,28.23
2023-08-18T11:35:40.023Z,27.96
2023-08-18T11:38:09.406Z,28.24
2023-08-18T11:40:40.780Z,27.14
2023-08-18T11:43:14.161Z,26.69
2023-08-18T11:45:41.639Z,25.33
2023-08-18T11:48:09.080Z,25.38
2023-08-18T11:50:38.251Z,24.67
2023-08-18T11:53:08.940Z,24.70
2023-08-18T11:55:38.094Z,23.94
2023-08-18T11:58:11.675Z,24.02
2023-08-18T12:00:40.459Z,23.70
2023-08-18T12:03:28.422Z,23.19
2023-08-18T12:05:57.593Z,24.35
2023-08-18T12:08:25.168Z,22.45
2023-08-18T12:10:54.943Z,22.89
2023-08-18T12:13:22.476Z,22.94
2023-08-18T12:15:49.974Z,22.71
2023-08-18T12:18:16.888Z,22.77
2023-08-18T12:20:43.768Z,23.02
2023-08-18T12:23:10.673Z,21.69
2023-08-18T12:25:37.495Z,22.39
2023-08-18T12:28:05.308Z,22.06
2023-08-18T12:30:32.440Z,22.48
2023-08-18T12:32:59.348Z,20.60
2023-08-18T12:35:26.521Z,21.51
2023-08-18T12:37:53.893Z,22.23
2023-08-18T12:40:20.884Z,21.67
2023-08-18T12:42:47.823Z,21.54
2023-08-18T12:45:14.734Z,21.97
2023-08-18T12:47:41.664Z,21.44
2023-08-18T12:50:09.033Z,21.54
2023-08-18T12:52:36.328Z,21.57
2023-08-18T12:55:06.301Z,21.76
2023-08-18T12:57:33.294Z,22.03
2023-08-18T13:00:00.234Z,22.83
2023-08-18T13:02:27.162Z,22.02
2023-08-18T13:04:54.033Z,21.93
2023-08-18T13:07:21.098Z,21.90
2023-08-18T13:09:47.996Z,21.26
2023-08-18T13:14:44.647Z,23.03
2023-08-18T13:17:11.730Z,23.07
2023-08-18T13:19:42.500Z,20.68
2023-08-18T13:22:15.216Z,21.42
2023-08-18T13:24:42.321Z,20.82
2023-08-18T13:27:09.227Z,21.11
2023-08-18T13:29:36.095Z,21.18
2023-08-18T13:32:03.136Z,20.95
2023-08-18T13:34:30.062Z,21.66
2023-08-18T13:36:57.131Z,22.00
2023-08-18T13:39:24.423Z,21.69
2023-08-18T13:41:51.263Z,22.44
2023-08-18T13:44:18.166Z,21.83
2023-08-18T13:46:45.218Z,22.41
2023-08-18T13:49:12.733Z,21.85
2023-08-18T13:51:41.061Z,22.31
2023-08-18T13:54:12.764Z,23.27
2023-08-18T13:56:41.149Z,21.97
2023-08-18T13:59:08.487Z,22.05
2023-08-18T14:01:35.809Z,21.97
2023-08-18T14:04:03.097Z,23.80
2023-08-18T14:06:30.025Z,26.29
2023-08-18T14:08:57.114Z,27.85
2023-08-18T14:11:23.943Z,26.62
2023-08-18T14:13:51.228Z,25.90
2023-08-18T14:16:18.118Z,24.62
2023-08-18T14:18:45.160Z,25.14
2023-08-18T14:21:12.040Z,25.92
2023-08-18T14:23:39.008Z,25.78
2023-08-18T14:26:05.970Z,26.73
2023-08-18T14:28:32.970Z,27.03
2023-08-18T14:30:59.848Z,27.08
2023-08-18T14:33:43.443Z,26.32
2023-08-18T14:36:13.049Z,26.40
2023-08-18T14:38:39.968Z,26.19
2023-08-18T14:41:07.142Z,25.36
2023-08-18T14:43:34.121Z,25.74
2023-08-18T14:46:01.139Z,26.19
2023-08-18T14:48:30.414Z,24.84
2023-08-18T14:50:58.460Z,25.19
2023-08-18T14:53:25.474Z,24.13
2023-08-18T14:55:53.294Z,23.94
2023-08-18T14:58:25.979Z,23.86
2023-08-18T15:00:53.294Z,23.75
2023-08-18T15:03:20.650Z,24.51
2023-08-18T15:05:47.624Z,23.46
2023-08-18T15:08:14.878Z,23.24
2023-08-18T15:10:42.076Z,22.35
2023-08-18T15:13:09.170Z,23.41
2023-08-18T15:15:36.118Z,23.19
2023-08-18T15:18:04.553Z,23.94
2023-08-18T15:20:32.410Z,24.25
2023-08-18T15:23:00.150Z,24.15
2023-08-18T15:25:27.376Z,24.11
2023-08-18T15:27:54.642Z,24.58
2023-08-18T15:30:22.246Z,24.24
2023-08-18T15:32:49.250Z,25.29
2023-08-18T15:35:16.220Z,24.66
2023-08-18T15:37:43.149Z,25.05
2023-08-18T15:40:10.943Z,25.53
2023-08-18T15:42:38.215Z,25.45
2023-08-18T15:45:05.732Z,26.59
2023-08-18T15:47:33.107Z,26.22
2023-08-18T15:50:00.560Z,27.74
2023-08-18T15:52:27.507Z,28.50
2023-08-18T15:54:54.642Z,28.98
2023-08-18T15:57:21.609Z,28.96
2023-08-18T15:59:48.575Z,29.57
2023-08-18T16:02:15.536Z,29.08
2023-08-18T16:04:42.544Z,29.23
2023-08-18T16:07:09.583Z,29.21
2023-08-18T16:09:36.511Z,30.07
2023-08-18T16:12:03.622Z,30.44
2023-08-18T16:17:01.525Z,30.78
2023-08-18T16:19:29.707Z,30.88
2023-08-18T16:21:56.653Z,30.74
2023-08-18T16:24:23.651Z,30.50
2023-08-18T16:26:52.577Z,30.92
2023-08-18T16:29:19.622Z,31.13
2023-08-18T16:31:46.566Z,32.21
2023-08-18T16:34:13.452Z,31.54
2023-08-18T16:36:40.337Z,31.27
2023-08-18T16:39:07.356Z,32.25
2023-08-18T16:41:34.314Z,32.00
2023-08-18T16:44:01.249Z,31.88
2023-08-18T16:46:28.185Z,31.80
2023-08-18T16:48:56.048Z,32.11
2023-08-18T16:51:22.913Z,32.66
2023-08-18T16:53:49.929Z,32.04
2023-08-18T16:56:16.969Z,31.99
2023-08-18T16:58:43.853Z,31.69
2023-08-18T17:01:10.923Z,32.67
2023-08-18T17:03:37.965Z,32.35
2023-08-18T17:06:04.887Z,32.57
2023-08-18T17:08:31.848Z,32.67
2023-08-18T17:11:00.473Z,33.13
2023-08-18T17:13:27.732Z,32.19
2023-08-18T17:15:54.809Z,32.51
2023-08-18T17:18:24.714Z,31.59
2023-08-18T17:20:53.200Z,32.58
2023-08-18T17:23:21.422Z,32.52
2023-08-18T17:25:49.771Z,32.73
2023-08-18T17:28:17.782Z,32.62
2023-08-18T17:30:45.965Z,32.08
2023-08-18T17:33:14.580Z,33.27
2023-08-18T17:35:44.728Z,32.80
2023-08-18T17:38:11.688Z,33.47
2023-08-18T17:40:38.651Z,33.55
2023-08-18T17:43:06.213Z,33.10
2023-08-18T17:45:35.957Z,32.68
2023-08-18T17:48:03.159Z,33.25
2023-08-18T17:50:30.074Z,34.15
2023-08-18T17:52:58.026Z,33.45
2023-08-18T17:55:25.068Z,33.73
2023-08-18T17:57:52.310Z,32.89
2023-08-18T18:00:19.338Z,32.76
2023-08-18T18:02:46.572Z,33.33
2023-08-18T18:05:15.267Z,32.84
2023-08-18T18:07:42.382Z,33.10
2023-08-18T18:10:10.095Z,33.25
2023-08-18T18:12:37.517Z,33.02
2023-08-18T18:15:04.897Z,32.14
2023-08-18T18:17:36.243Z,32.00
2023-08-18T18:20:04.135Z,31.55
2023-08-18T18:22:31.672Z,31.65
2023-08-18T18:24:58.813Z,31.98
2023-08-18T18:27:25.812Z,31.12
2023-08-18T18:29:52.681Z,32.24
2023-08-18T18:32:19.732Z,31.14
2023-08-18T18:34:48.243Z,31.77
2023-08-18T18:37:15.480Z,31.95
2023-08-18T18:39:42.486Z,32.17
2023-08-18T18:42:09.720Z,32.19
2023-08-18T18:44:37.433Z,32.06
2023-08-18T18:47:04.745Z,31.95
2023-08-18T18:49:31.745Z,32.66
2023-08-18T18:51:58.711Z,32.36
2023-08-18T18:54:26.114Z,32.10
2023-08-18T18:56:53.088Z,33.28
2023-08-18T18:59:20.029Z,32.88
2023-08-18T19:01:46.874Z,32.72
2023-08-18T19:04:13.967Z,32.44
2023-08-18T19:06:40.838Z,33.26
2023-08-18T19:09:07.767Z,33.66
2023-08-18T19:11:34.677Z,33.05
2023-08-18T19:14:01.621Z,32.89
2023-08-18T19:16:28.617Z,33.52
2023-08-18T19:18:55.533Z,34.01
2023-08-18T19:21:28.606Z,33.36
2023-08-18T19:23:56.118Z,34.22
2023-08-18T19:26:24.123Z,33.96
2023-08-18T19:28:55.341Z,34.49
2023-08-18T19:31:23.036Z,34.71
2023-08-18T19:33:50.024Z,33.85
2023-08-18T19:36:20.021Z,34.26
2023-08-18T19:38:47.449Z,34.37
2023-08-18T19:41:14.507Z,35.10
2023-08-18T19:43:41.408Z,34.67
2023-08-18T19:46:08.777Z,34.74
2023-08-18T19:48:35.831Z,35.44
2023-08-18T19:51:02.838Z,35.62
2023-08-18T19:53:29.758Z,35.71
2023-08-18T19:55:56.730Z,35.81
2023-08-18T19:58:23.955Z,35.67
2023-08-18T20:00:50.874Z,35.78
2023-08-18T20:03:17.964Z,36.17
2023-08-18T20:05:44.828Z,36.02
2023-08-18T20:08:14.541Z,36.05
2023-08-18T20:10:43.017Z,36.13
2023-08-18T20:13:10.102Z,36.18
2023-08-18T20:15:37.079Z,36.20
2023-08-18T20:18:04.959Z,36.52
2023-08-18T20:20:32.039Z,37.43
2023-08-18T20:22:59.169Z,37.04
2023-08-18T20:25:27.087Z,37.04
2023-08-18T20:27:54.170Z,36.92
2023-08-18T20:30:22.023Z,36.62
2023-08-18T20:32:54.731Z,36.93
2023-08-18T20:35:25.739Z,36.48
2023-08-18T20:37:53.567Z,37.34
2023-08-18T20:40:20.641Z,36.23
2023-08-18T20:42:47.585Z,36.87
2023-08-18T20:45:14.420Z,35.61
2023-08-18T20:47:41.344Z,36.91
2023-08-18T20:50:11.407Z,37.24
2023-08-18T20:52:38.930Z,36.87
2023-08-18T20:55:08.620Z,36.79
2023-08-18T20:57:35.905Z,37.19
2023-08-18T21:00:04.061Z,36.79
2023-08-18T21:02:31.574Z,37.67
2023-08-18T21:05:01.754Z,37.13
2023-08-18T21:07:28.747Z,37.73
2023-08-18T21:09:55.636Z,37.70
2023-08-18T21:12:23.930Z,37.52
2023-08-18T21:14:50.957Z,37.42
2023-08-18T21:17:17.980Z,38.02
2023-08-18T21:19:45.489Z,37.93
2023-08-18T21:22:12.421Z,37.15
2023-08-18T21:24:39.326Z,37.83
2023-08-18T21:27:06.396Z,38.50
2023-08-18T21:29:33.318Z,38.34
2023-08-18T21:32:00.295Z,37.92
2023-08-18T21:34:27.217Z,37.52
2023-08-18T21:36:54.150Z,37.51
2023-08-18T21:39:21.836Z,37.30
2023-08-18T21:41:48.737Z,38.11
2023-08-18T21:44:15.834Z,37.76
2023-08-18T21:46:42.752Z,38.16
2023-08-18T21:49:09.658Z,38.10
2023-08-18T21:51:36.585Z,37.56
2023-08-18T21:54:03.731Z,37.14
2023-08-18T21:56:32.628Z,37.58
2023-08-18T21:58:59.590Z,37.57
2023-08-18T22:01:26.666Z,36.90
2023-08-18T22:03:53.821Z,37.69
2023-08-18T22:06:20.739Z,37.67
2023-08-18T22:08:47.702Z,37.62
2023-08-18T22:11:14.566Z,37.55
2023-08-18T22:13:43.657Z,38.20
2023-08-18T22:16:10.655Z,37.77
2023-08-18T22:18:37.708Z,38.08
2023-08-18T22:21:05.426Z,38.55
2023-08-18T22:23:35.944Z,39.01
2023-08-18T22:26:03.279Z,38.81
2023-08-18T22:28:30.097Z,39.37
2023-08-18T22:30:56.944Z,38.72
2023-08-18T22:33:24.983Z,39.22
2023-08-18T22:35:58.710Z,39.63
2023-08-18T22:38:25.734Z,39.26
2023-08-18T22:41:00.119Z,40.24
2023-08-18T22:43:27.261Z,40.44
2023-08-18T22:45:55.079Z,40.39
2023-08-18T22:48:23.583Z,40.96
2023-08-18T22:50:51.713Z,41.15
2023-08-18T22:53:18.649Z,41.45
2023-08-18T22:55:45.619Z,41.13
2023-08-18T22:58:12.596Z,41.88
2023-08-18T23:00:39.550Z,41.69
2023-08-18T23:03:06.767Z,42.25
2023-08-18T23:05:33.780Z,42.67
2023-08-18T23:08:00.926Z,42.81
2023-08-18T23:10:27.948Z,43.44
2023-08-18T23:12:54.911Z,43.53
2023-08-18T23:15:21.815Z,44.29
2023-08-18T23:17:48.831Z,44.30
2023-08-18T23:20:15.793Z,44.39
2023-08-18T23:22:42.655Z,44.31
2023-08-18T23:25:09.792Z,44.45
2023-08-18T23:27:36.849Z,44.69
2023-08-18T23:30:05.270Z,44.29
2023-08-18T23:32:32.226Z,43.92
2023-08-18T23:34:59.266Z,43.30
2023-08-18T23:37:26.135Z,43.73
2023-08-18T23:39:53.077Z,44.23
2023-08-18T23:42:20.020Z,44.44
2023-08-18T23:44:46.988Z,44.40
2023-08-18T23:47:13.850Z,44.06
2023-08-18T23:49:40.730Z,43.54
2023-08-18T23:52:07.604Z,44.33
2023-08-18T23:54:34.505Z,44.32
2023-08-18T23:57:05.933Z,43.79
2023-08-18T23:59:32.836Z,43.45
